sensor_id;sensor_type;location;lat;lon;timestamp;P1;durP1;ratioP1;P2;durP2;ratioP2
50367;SDS011;36281;34.132;-118.018;2022-07-23T00:01:36;7.35;;;5.97;;
50367;SDS011;36281;34.132;-118.018;2022-07-23T00:04:06;10.68;;;6.38;;
50367;SDS011;36281;34.132;-118.018;2022-07-23T00:06:35;10.73;;;6.28;;
50367;SDS011;36281;34.132;-118.018;2022-07-23T00:09:04;8.25;;;5.82;;
50367;SDS011;36281;34.132;-118.018;2022-07-23T00:11:33;7.65;;;6.22;;
50367;SDS011;36281;34.132;-118.018;2022-07-23T00:14:04;10.45;;;6.13;;
50367;SDS011;36281;34.132;-118.018;2022-07-23T00:16:33;11.75;;;6.13;;
50367;SDS011;36281;34.132;-118.018;2022-07-23T00:19:02;7.57;;;5.50;;
50367;SDS011;36281;34.132;-118.018;2022-07-23T00:21:31;8.27;;;5.82;;
50367;SDS011;36281;34.132;-118.018;2022-07-23T00:24:00;8.35;;;5.65;;
50367;SDS011;36281;34.132;-118.018;2022-07-23T00:26:29;8.75;;;5.72;;
50367;SDS011;36281;34.132;-118.018;2022-07-23T00:28:58;6.90;;;5.40;;
50367;SDS011;36281;34.132;-118.018;2022-07-23T00:31:29;9.82;;;6.18;;
50367;SDS011;36281;34.132;-118.018;2022-07-23T00:33:59;8.93;;;5.90;;
50367;SDS011;36281;34.132;-118.018;2022-07-23T00:36:31;8.02;;;5.90;;
50367;SDS011;36281;34.132;-118.018;2022-07-23T00:39:01;8.75;;;5.78;;
50367;SDS011;36281;34.132;-118.018;2022-07-23T00:41:43;9.20;;;6.07;;
50367;SDS011;36281;34.132;-118.018;2022-07-23T00:44:16;9.80;;;6.07;;
50367;SDS011;36281;34.132;-118.018;2022-07-23T00:46:49;7.95;;;6.20;;
50367;SDS011;36281;34.132;-118.018;2022-07-23T00:49:20;10.60;;;6.13;;
50367;SDS011;36281;34.132;-118.018;2022-07-23T00:51:50;14.82;;;6.80;;
50367;SDS011;36281;34.132;-118.018;2022-07-23T00:54:19;17.15;;;6.13;;
50367;SDS011;36281;34.132;-118.018;2022-07-23T00:56:50;12.02;;;6.70;;
50367;SDS011;36281;34.132;-118.018;2022-07-23T00:59:19;10.38;;;6.80;;
50367;SDS011;36281;34.132;-118.018;2022-07-23T01:01:50;12.82;;;6.68;;
50367;SDS011;36281;34.132;-118.018;2022-07-23T01:04:19;8.65;;;6.10;;
50367;SDS011;36281;34.132;-118.018;2022-07-23T01:06:48;10.00;;;6.85;;
50367;SDS011;36281;34.132;-118.018;2022-07-23T01:09:18;8.18;;;6.00;;
50367;SDS011;36281;34.132;-118.018;2022-07-23T01:11:47;9.75;;;6.75;;
50367;SDS011;36281;34.132;-118.018;2022-07-23T01:14:18;10.05;;;6.28;;
50367;SDS011;36281;34.132;-118.018;2022-07-23T01:16:48;8.85;;;6.20;;
50367;SDS011;36281;34.132;-118.018;2022-07-23T01:19:19;13.88;;;7.30;;
50367;SDS011;36281;34.132;-118.018;2022-07-23T01:21:49;11.05;;;7.30;;
50367;SDS011;36281;34.132;-118.018;2022-07-23T01:24:20;11.57;;;7.00;;
50367;SDS011;36281;34.132;-118.018;2022-07-23T01:26:49;9.27;;;6.75;;
50367;SDS011;36281;34.132;-118.018;2022-07-23T01:29:18;9.75;;;7.03;;
50367;SDS011;36281;34.132;-118.018;2022-07-23T01:31:48;12.50;;;7.88;;
50367;SDS011;36281;34.132;-118.018;2022-07-23T01:34:17;9.60;;;6.82;;
50367;SDS011;36281;34.132;-118.018;2022-07-23T01:36:46;10.38;;;7.25;;
50367;SDS011;36281;34.132;-118.018;2022-07-23T01:39:15;10.32;;;7.10;;
50367;SDS011;36281;34.132;-118.018;2022-07-23T01:41:46;12.05;;;7.65;;
50367;SDS011;36281;34.132;-118.018;2022-07-23T01:44:17;10.15;;;7.45;;
50367;SDS011;36281;34.132;-118.018;2022-07-23T01:46:46;10.45;;;6.95;;
50367;SDS011;36281;34.132;-118.018;2022-07-23T01:49:17;10.88;;;7.47;;
50367;SDS011;36281;34.132;-118.018;2022-07-23T01:51:46;9.70;;;7.25;;
50367;SDS011;36281;34.132;-118.018;2022-07-23T01:54:27;9.05;;;7.47;;
50367;SDS011;36281;34.132;-118.018;2022-07-23T01:56:59;13.15;;;7.10;;
50367;SDS011;36281;34.132;-118.018;2022-07-23T01:59:28;10.43;;;7.40;;
50367;SDS011;36281;34.132;-118.018;2022-07-23T02:01:57;9.27;;;7.47;;
50367;SDS011;36281;34.132;-118.018;2022-07-23T02:04:27;13.00;;;7.35;;
50367;SDS011;36281;34.132;-118.018;2022-07-23T02:06:56;10.50;;;7.75;;
50367;SDS011;36281;34.132;-118.018;2022-07-23T02:09:25;9.90;;;7.70;;
50367;SDS011;36281;34.132;-118.018;2022-07-23T02:11:54;15.10;;;7.43;;
50367;SDS011;36281;34.132;-118.018;2022-07-23T02:14:24;13.60;;;7.70;;
50367;SDS011;36281;34.132;-118.018;2022-07-23T02:16:54;11.68;;;7.55;;
50367;SDS011;36281;34.132;-118.018;2022-07-23T02:19:23;12.95;;;8.10;;
50367;SDS011;36281;34.132;-118.018;2022-07-23T02:21:52;11.27;;;7.82;;
50367;SDS011;36281;34.132;-118.018;2022-07-23T02:24:22;8.88;;;7.25;;
50367;SDS011;36281;34.132;-118.018;2022-07-23T02:26:51;10.80;;;7.60;;
50367;SDS011;36281;34.132;-118.018;2022-07-23T02:29:20;12.77;;;9.07;;
50367;SDS011;36281;34.132;-118.018;2022-07-23T02:31:50;12.80;;;8.18;;
50367;SDS011;36281;34.132;-118.018;2022-07-23T02:34:19;11.70;;;8.73;;
50367;SDS011;36281;34.132;-118.018;2022-07-23T02:36:48;12.20;;;9.00;;
50367;SDS011;36281;34.132;-118.018;2022-07-23T02:39:17;13.82;;;9.50;;
50367;SDS011;36281;34.132;-118.018;2022-07-23T02:41:46;11.63;;;8.35;;
50367;SDS011;36281;34.132;-118.018;2022-07-23T02:44:15;12.57;;;9.18;;
50367;SDS011;36281;34.132;-118.018;2022-07-23T02:46:44;11.95;;;8.70;;
50367;SDS011;36281;34.132;-118.018;2022-07-23T02:49:15;9.77;;;8.32;;
50367;SDS011;36281;34.132;-118.018;2022-07-23T02:51:45;13.23;;;9.15;;
50367;SDS011;36281;34.132;-118.018;2022-07-23T02:54:14;12.70;;;9.15;;
50367;SDS011;36281;34.132;-118.018;2022-07-23T02:56:43;12.82;;;8.75;;
50367;SDS011;36281;34.132;-118.018;2022-07-23T02:59:12;14.65;;;8.73;;
50367;SDS011;36281;34.132;-118.018;2022-07-23T03:01:41;10.48;;;8.80;;
50367;SDS011;36281;34.132;-118.018;2022-07-23T03:04:10;10.45;;;8.65;;
50367;SDS011;36281;34.132;-118.018;2022-07-23T03:06:41;13.18;;;8.60;;
50367;SDS011;36281;34.132;-118.018;2022-07-23T03:09:10;13.13;;;8.57;;
50367;SDS011;36281;34.132;-118.018;2022-07-23T03:11:39;13.95;;;8.70;;
50367;SDS011;36281;34.132;-118.018;2022-07-23T03:14:08;17.88;;;9.05;;
50367;SDS011;36281;34.132;-118.018;2022-07-23T03:16:39;12.10;;;8.80;;
50367;SDS011;36281;34.132;-118.018;2022-07-23T03:19:08;12.30;;;8.98;;
50367;SDS011;36281;34.132;-118.018;2022-07-23T03:21:38;14.77;;;9.20;;
50367;SDS011;36281;34.132;-118.018;2022-07-23T03:24:10;15.30;;;9.20;;
50367;SDS011;36281;34.132;-118.018;2022-07-23T03:26:39;17.27;;;9.02;;
50367;SDS011;36281;34.132;-118.018;2022-07-23T03:29:08;13.52;;;8.32;;
50367;SDS011;36281;34.132;-118.018;2022-07-23T03:31:37;12.45;;;9.15;;
50367;SDS011;36281;34.132;-118.018;2022-07-23T03:34:06;15.25;;;9.00;;
50367;SDS011;36281;34.132;-118.018;2022-07-23T03:36:35;13.82;;;9.25;;
50367;SDS011;36281;34.132;-118.018;2022-07-23T03:39:04;14.45;;;9.10;;
50367;SDS011;36281;34.132;-118.018;2022-07-23T03:41:40;12.82;;;9.05;;
50367;SDS011;36281;34.132;-118.018;2022-07-23T03:44:09;16.67;;;8.90;;
50367;SDS011;36281;34.132;-118.018;2022-07-23T03:46:38;12.43;;;8.60;;
50367;SDS011;36281;34.132;-118.018;2022-07-23T03:49:07;16.00;;;8.88;;
50367;SDS011;36281;34.132;-118.018;2022-07-23T03:51:36;14.75;;;8.77;;
50367;SDS011;36281;34.132;-118.018;2022-07-23T03:54:05;13.23;;;9.10;;
50367;SDS011;36281;34.132;-118.018;2022-07-23T03:56:34;13.32;;;9.00;;
50367;SDS011;36281;34.132;-118.018;2022-07-23T03:59:05;13.73;;;8.73;;
50367;SDS011;36281;34.132;-118.018;2022-07-23T04:01:34;14.05;;;8.98;;
50367;SDS011;36281;34.132;-118.018;2022-07-23T04:04:04;12.63;;;8.68;;
50367;SDS011;36281;34.132;-118.018;2022-07-23T04:06:33;12.35;;;8.88;;
50367;SDS011;36281;34.132;-118.018;2022-07-23T04:09:02;13.90;;;9.07;;
50367;SDS011;36281;34.132;-118.018;2022-07-23T04:11:32;12.05;;;8.70;;
50367;SDS011;36281;34.132;-118.018;2022-07-23T04:14:01;12.02;;;8.90;;
50367;SDS011;36281;34.132;-118.018;2022-07-23T04:16:32;13.88;;;8.45;;
50367;SDS011;36281;34.132;-118.018;2022-07-23T04:19:01;10.90;;;7.30;;
50367;SDS011;36281;34.132;-118.018;2022-07-23T04:21:32;11.20;;;6.70;;
50367;SDS011;36281;34.132;-118.018;2022-07-23T04:24:01;12.00;;;6.63;;
50367;SDS011;36281;34.132;-118.018;2022-07-23T04:26:30;8.73;;;6.40;;
50367;SDS011;36281;34.132;-118.018;2022-07-23T04:28:59;10.73;;;6.30;;
50367;SDS011;36281;34.132;-118.018;2022-07-23T04:31:28;9.30;;;6.43;;
50367;SDS011;36281;34.132;-118.018;2022-07-23T04:34:04;10.65;;;7.18;;
50367;SDS011;36281;34.132;-118.018;2022-07-23T04:36:33;10.68;;;6.85;;
50367;SDS011;36281;34.132;-118.018;2022-07-23T04:39:02;9.85;;;6.05;;
50367;SDS011;36281;34.132;-118.018;2022-07-23T04:41:32;9.65;;;6.57;;
50367;SDS011;36281;34.132;-118.018;2022-07-23T04:44:02;12.18;;;6.90;;
50367;SDS011;36281;34.132;-118.018;2022-07-23T04:46:31;10.50;;;6.65;;
50367;SDS011;36281;34.132;-118.018;2022-07-23T04:49:00;10.63;;;6.55;;
50367;SDS011;36281;34.132;-118.018;2022-07-23T04:51:32;11.98;;;7.05;;
50367;SDS011;36281;34.132;-118.018;2022-07-23T04:54:01;9.20;;;7.22;;
50367;SDS011;36281;34.132;-118.018;2022-07-23T04:56:30;9.63;;;6.57;;
50367;SDS011;36281;34.132;-118.018;2022-07-23T04:58:59;11.73;;;7.30;;
50367;SDS011;36281;34.132;-118.018;2022-07-23T05:01:29;11.18;;;7.05;;
50367;SDS011;36281;34.132;-118.018;2022-07-23T05:03:58;10.13;;;7.65;;
50367;SDS011;36281;34.132;-118.018;2022-07-23T05:06:27;13.68;;;7.43;;
50367;SDS011;36281;34.132;-118.018;2022-07-23T05:08:58;9.98;;;6.55;;
50367;SDS011;36281;34.132;-118.018;2022-07-23T05:11:27;9.50;;;6.53;;
50367;SDS011;36281;34.132;-118.018;2022-07-23T05:13:56;9.93;;;6.75;;
50367;SDS011;36281;34.132;-118.018;2022-07-23T05:16:26;10.18;;;6.65;;
50367;SDS011;36281;34.132;-118.018;2022-07-23T05:18:55;11.52;;;7.07;;
50367;SDS011;36281;34.132;-118.018;2022-07-23T05:21:25;11.52;;;6.97;;
50367;SDS011;36281;34.132;-118.018;2022-07-23T05:23:54;10.50;;;6.60;;
50367;SDS011;36281;34.132;-118.018;2022-07-23T05:26:24;12.82;;;6.97;;
50367;SDS011;36281;34.132;-118.018;2022-07-23T05:28:53;10.13;;;6.63;;
50367;SDS011;36281;34.132;-118.018;2022-07-23T05:31:22;12.27;;;6.90;;
50367;SDS011;36281;34.132;-118.018;2022-07-23T05:33:52;12.95;;;7.10;;
50367;SDS011;36281;34.132;-118.018;2022-07-23T05:36:21;9.68;;;7.18;;
50367;SDS011;36281;34.132;-118.018;2022-07-23T05:38:50;10.57;;;6.82;;
50367;SDS011;36281;34.132;-118.018;2022-07-23T05:41:19;11.25;;;6.45;;
50367;SDS011;36281;34.132;-118.018;2022-07-23T05:43:49;11.30;;;6.90;;
50367;SDS011;36281;34.132;-118.018;2022-07-23T05:46:18;10.68;;;7.40;;
50367;SDS011;36281;34.132;-118.018;2022-07-23T05:48:48;15.43;;;7.13;;
50367;SDS011;36281;34.132;-118.018;2022-07-23T05:51:20;11.30;;;6.85;;
50367;SDS011;36281;34.132;-118.018;2022-07-23T05:53:49;12.43;;;7.70;;
50367;SDS011;36281;34.132;-118.018;2022-07-23T05:56:19;13.05;;;7.13;;
50367;SDS011;36281;34.132;-118.018;2022-07-23T05:58:50;13.55;;;7.50;;
50367;SDS011;36281;34.132;-118.018;2022-07-23T06:01:19;12.02;;;7.45;;
50367;SDS011;36281;34.132;-118.018;2022-07-23T06:03:48;15.05;;;8.20;;
50367;SDS011;36281;34.132;-118.018;2022-07-23T06:06:17;11.15;;;7.30;;
50367;SDS011;36281;34.132;-118.018;2022-07-23T06:08:46;16.02;;;7.88;;
50367;SDS011;36281;34.132;-118.018;2022-07-23T06:11:15;15.18;;;8.30;;
50367;SDS011;36281;34.132;-118.018;2022-07-23T06:13:44;14.50;;;7.53;;
50367;SDS011;36281;34.132;-118.018;2022-07-23T06:16:15;10.85;;;7.43;;
50367;SDS011;36281;34.132;-118.018;2022-07-23T06:18:44;12.98;;;7.47;;
50367;SDS011;36281;34.132;-118.018;2022-07-23T06:21:13;12.70;;;7.57;;
50367;SDS011;36281;34.132;-118.018;2022-07-23T06:24:02;11.25;;;6.85;;
50367;SDS011;36281;34.132;-118.018;2022-07-23T06:26:34;10.18;;;7.47;;
50367;SDS011;36281;34.132;-118.018;2022-07-23T06:29:03;12.15;;;7.53;;
50367;SDS011;36281;34.132;-118.018;2022-07-23T06:31:33;21.92;;;7.35;;
50367;SDS011;36281;34.132;-118.018;2022-07-23T06:34:03;14.52;;;7.80;;
50367;SDS011;36281;34.132;-118.018;2022-07-23T06:36:32;16.65;;;8.00;;
50367;SDS011;36281;34.132;-118.018;2022-07-23T06:39:02;14.77;;;8.45;;
50367;SDS011;36281;34.132;-118.018;2022-07-23T06:41:31;13.45;;;7.82;;
50367;SDS011;36281;34.132;-118.018;2022-07-23T06:44:00;13.45;;;8.02;;
50367;SDS011;36281;34.132;-118.018;2022-07-23T06:46:29;14.98;;;8.30;;
50367;SDS011;36281;34.132;-118.018;2022-07-23T06:49:00;11.43;;;7.68;;
50367;SDS011;36281;34.132;-118.018;2022-07-23T06:51:30;11.27;;;7.70;;
50367;SDS011;36281;34.132;-118.018;2022-07-23T06:53:58;13.20;;;7.28;;
50367;SDS011;36281;34.132;-118.018;2022-07-23T06:56:27;15.13;;;7.85;;
50367;SDS011;36281;34.132;-118.018;2022-07-23T06:58:56;11.75;;;7.82;;
50367;SDS011;36281;34.132;-118.018;2022-07-23T07:01:26;13.18;;;8.18;;
50367;SDS011;36281;34.132;-118.018;2022-07-23T07:03:55;15.65;;;8.25;;
50367;SDS011;36281;34.132;-118.018;2022-07-23T07:06:26;13.63;;;7.63;;
50367;SDS011;36281;34.132;-118.018;2022-07-23T07:08:55;12.38;;;8.55;;
50367;SDS011;36281;34.132;-118.018;2022-07-23T07:11:25;12.48;;;8.23;;
50367;SDS011;36281;34.132;-118.018;2022-07-23T07:13:54;12.30;;;8.27;;
50367;SDS011;36281;34.132;-118.018;2022-07-23T07:16:23;12.95;;;7.97;;
50367;SDS011;36281;34.132;-118.018;2022-07-23T07:18:58;14.75;;;8.43;;
50367;SDS011;36281;34.132;-118.018;2022-07-23T07:21:30;13.10;;;8.20;;
50367;SDS011;36281;34.132;-118.018;2022-07-23T07:23:59;11.75;;;8.13;;
50367;SDS011;36281;34.132;-118.018;2022-07-23T07:26:28;16.40;;;8.50;;
50367;SDS011;36281;34.132;-118.018;2022-07-23T07:28:58;12.93;;;8.52;;
50367;SDS011;36281;34.132;-118.018;2022-07-23T07:31:28;14.95;;;7.78;;
50367;SDS011;36281;34.132;-118.018;2022-07-23T07:33:58;15.85;;;9.30;;
50367;SDS011;36281;34.132;-118.018;2022-07-23T07:36:27;15.93;;;9.00;;
50367;SDS011;36281;34.132;-118.018;2022-07-23T07:38:57;19.42;;;9.65;;
50367;SDS011;36281;34.132;-118.018;2022-07-23T07:41:27;16.88;;;8.35;;
50367;SDS011;36281;34.132;-118.018;2022-07-23T07:43:56;18.20;;;9.07;;
50367;SDS011;36281;34.132;-118.018;2022-07-23T07:46:25;17.30;;;9.30;;
50367;SDS011;36281;34.132;-118.018;2022-07-23T07:48:55;17.27;;;9.52;;
50367;SDS011;36281;34.132;-118.018;2022-07-23T07:51:24;18.70;;;9.10;;
50367;SDS011;36281;34.132;-118.018;2022-07-23T07:53:54;14.02;;;8.57;;
50367;SDS011;36281;34.132;-118.018;2022-07-23T07:56:26;14.25;;;9.73;;
50367;SDS011;36281;34.132;-118.018;2022-07-23T07:58:55;16.50;;;9.60;;
50367;SDS011;36281;34.132;-118.018;2022-07-23T08:01:25;18.45;;;9.55;;
50367;SDS011;36281;34.132;-118.018;2022-07-23T08:03:54;21.88;;;10.10;;
50367;SDS011;36281;34.132;-118.018;2022-07-23T08:06:24;15.32;;;9.20;;
50367;SDS011;36281;34.132;-118.018;2022-07-23T08:08:53;19.25;;;10.60;;
50367;SDS011;36281;34.132;-118.018;2022-07-23T08:11:22;15.32;;;9.52;;
50367;SDS011;36281;34.132;-118.018;2022-07-23T08:13:53;16.83;;;9.98;;
50367;SDS011;36281;34.132;-118.018;2022-07-23T08:16:22;19.45;;;9.93;;
50367;SDS011;36281;34.132;-118.018;2022-07-23T08:18:51;18.00;;;9.93;;
50367;SDS011;36281;34.132;-118.018;2022-07-23T08:21:20;16.77;;;9.90;;
50367;SDS011;36281;34.132;-118.018;2022-07-23T08:23:49;17.52;;;9.65;;
50367;SDS011;36281;34.132;-118.018;2022-07-23T08:26:18;16.48;;;10.40;;
50367;SDS011;36281;34.132;-118.018;2022-07-23T08:28:47;14.18;;;9.68;;
50367;SDS011;36281;34.132;-118.018;2022-07-23T08:31:17;18.15;;;10.00;;
50367;SDS011;36281;34.132;-118.018;2022-07-23T08:33:46;17.73;;;10.18;;
50367;SDS011;36281;34.132;-118.018;2022-07-23T08:36:15;19.58;;;10.70;;
50367;SDS011;36281;34.132;-118.018;2022-07-23T08:38:44;15.65;;;9.90;;
50367;SDS011;36281;34.132;-118.018;2022-07-23T08:41:13;14.60;;;9.45;;
50367;SDS011;36281;34.132;-118.018;2022-07-23T08:43:44;19.02;;;10.82;;
50367;SDS011;36281;34.132;-118.018;2022-07-23T08:46:13;18.23;;;10.90;;
50367;SDS011;36281;34.132;-118.018;2022-07-23T08:48:47;17.00;;;10.27;;
50367;SDS011;36281;34.132;-118.018;2022-07-23T08:51:16;18.00;;;10.48;;
50367;SDS011;36281;34.132;-118.018;2022-07-23T08:53:46;16.17;;;10.48;;
50367;SDS011;36281;34.132;-118.018;2022-07-23T08:56:15;16.30;;;9.95;;
50367;SDS011;36281;34.132;-118.018;2022-07-23T08:58:44;17.33;;;10.75;;
50367;SDS011;36281;34.132;-118.018;2022-07-23T09:01:14;14.30;;;10.60;;
50367;SDS011;36281;34.132;-118.018;2022-07-23T09:03:43;15.85;;;10.07;;
50367;SDS011;36281;34.132;-118.018;2022-07-23T09:06:14;16.73;;;10.10;;
50367;SDS011;36281;34.132;-118.018;2022-07-23T09:08:44;17.63;;;10.70;;
50367;SDS011;36281;34.132;-118.018;2022-07-23T09:11:15;16.52;;;10.38;;
50367;SDS011;36281;34.132;-118.018;2022-07-23T09:13:46;17.35;;;10.45;;
50367;SDS011;36281;34.132;-118.018;2022-07-23T09:16:16;16.02;;;10.13;;
50367;SDS011;36281;34.132;-118.018;2022-07-23T09:18:50;20.90;;;10.88;;
50367;SDS011;36281;34.132;-118.018;2022-07-23T09:21:22;16.23;;;10.88;;
50367;SDS011;36281;34.132;-118.018;2022-07-23T09:23:53;20.58;;;11.05;;
50367;SDS011;36281;34.132;-118.018;2022-07-23T09:26:30;19.33;;;10.88;;
50367;SDS011;36281;34.132;-118.018;2022-07-23T09:29:04;16.27;;;10.13;;
50367;SDS011;36281;34.132;-118.018;2022-07-23T09:31:41;15.65;;;10.25;;
50367;SDS011;36281;34.132;-118.018;2022-07-23T09:34:13;18.23;;;10.38;;
50367;SDS011;36281;34.132;-118.018;2022-07-23T09:36:46;16.08;;;9.80;;
50367;SDS011;36281;34.132;-118.018;2022-07-23T09:39:16;14.25;;;10.05;;
50367;SDS011;36281;34.132;-118.018;2022-07-23T09:41:54;17.83;;;11.13;;
50367;SDS011;36281;34.132;-118.018;2022-07-23T09:44:23;22.73;;;11.35;;
50367;SDS011;36281;34.132;-118.018;2022-07-23T09:46:57;16.67;;;10.85;;
50367;SDS011;36281;34.132;-118.018;2022-07-23T09:49:28;18.83;;;10.73;;
50367;SDS011;36281;34.132;-118.018;2022-07-23T09:51:59;18.15;;;9.82;;
50367;SDS011;36281;34.132;-118.018;2022-07-23T09:54:30;15.50;;;10.10;;
50367;SDS011;36281;34.132;-118.018;2022-07-23T09:57:02;16.48;;;10.57;;
50367;SDS011;36281;34.132;-118.018;2022-07-23T09:59:35;17.98;;;10.57;;
50367;SDS011;36281;34.132;-118.018;2022-07-23T10:02:06;18.52;;;10.45;;
50367;SDS011;36281;34.132;-118.018;2022-07-23T10:04:38;17.48;;;10.23;;
50367;SDS011;36281;34.132;-118.018;2022-07-23T10:07:09;17.02;;;10.30;;
50367;SDS011;36281;34.132;-118.018;2022-07-23T10:09:39;15.30;;;10.18;;
50367;SDS011;36281;34.132;-118.018;2022-07-23T10:12:10;19.38;;;10.45;;
50367;SDS011;36281;34.132;-118.018;2022-07-23T10:14:40;20.85;;;10.35;;
50367;SDS011;36281;34.132;-118.018;2022-07-23T10:17:10;21.70;;;12.40;;
50367;SDS011;36281;34.132;-118.018;2022-07-23T10:19:39;18.25;;;11.85;;
50367;SDS011;36281;34.132;-118.018;2022-07-23T10:22:11;17.08;;;11.38;;
50367;SDS011;36281;34.132;-118.018;2022-07-23T10:24:52;16.80;;;9.98;;
50367;SDS011;36281;34.132;-118.018;2022-07-23T10:27:43;17.77;;;9.52;;
50367;SDS011;36281;34.132;-118.018;2022-07-23T10:30:35;14.50;;;9.20;;
50367;SDS011;36281;34.132;-118.018;2022-07-23T10:33:15;16.98;;;9.80;;
50367;SDS011;36281;34.132;-118.018;2022-07-23T10:35:56;15.57;;;8.93;;
50367;SDS011;36281;34.132;-118.018;2022-07-23T10:38:34;15.93;;;10.10;;
50367;SDS011;36281;34.132;-118.018;2022-07-23T10:41:11;17.80;;;10.95;;
50367;SDS011;36281;34.132;-118.018;2022-07-23T10:43:41;17.23;;;10.00;;
50367;SDS011;36281;34.132;-118.018;2022-07-23T10:49:23;19.17;;;11.55;;
50367;SDS011;36281;34.132;-118.018;2022-07-23T10:54:49;20.40;;;10.63;;
50367;SDS011;36281;34.132;-118.018;2022-07-23T10:57:19;20.83;;;11.75;;
50367;SDS011;36281;34.132;-118.018;2022-07-23T11:02:54;21.38;;;12.93;;
50367;SDS011;36281;34.132;-118.018;2022-07-23T11:05:24;17.77;;;11.73;;
50367;SDS011;36281;34.132;-118.018;2022-07-23T11:08:10;20.95;;;12.10;;
50367;SDS011;36281;34.132;-118.018;2022-07-23T11:10:48;21.77;;;11.75;;
50367;SDS011;36281;34.132;-118.018;2022-07-23T11:16:17;20.20;;;11.60;;
50367;SDS011;36281;34.132;-118.018;2022-07-23T11:18:54;19.80;;;11.90;;
50367;SDS011;36281;34.132;-118.018;2022-07-23T11:24:24;21.67;;;12.02;;
50367;SDS011;36281;34.132;-118.018;2022-07-23T11:26:56;22.10;;;12.85;;
50367;SDS011;36281;34.132;-118.018;2022-07-23T11:29:42;24.60;;;11.88;;
50367;SDS011;36281;34.132;-118.018;2022-07-23T11:32:24;18.50;;;11.98;;
50367;SDS011;36281;34.132;-118.018;2022-07-23T11:35:24;21.63;;;11.90;;
50367;SDS011;36281;34.132;-118.018;2022-07-23T11:38:02;22.48;;;12.00;;
50367;SDS011;36281;34.132;-118.018;2022-07-23T11:40:34;21.73;;;12.02;;
50367;SDS011;36281;34.132;-118.018;2022-07-23T11:43:06;22.75;;;12.88;;
50367;SDS011;36281;34.132;-118.018;2022-07-23T11:45:37;19.42;;;11.75;;
50367;SDS011;36281;34.132;-118.018;2022-07-23T11:48:08;19.65;;;11.60;;
50367;SDS011;36281;34.132;-118.018;2022-07-23T11:50:37;21.73;;;12.57;;
50367;SDS011;36281;34.132;-118.018;2022-07-23T11:53:06;17.75;;;11.65;;
50367;SDS011;36281;34.132;-118.018;2022-07-23T11:55:36;20.25;;;12.05;;
50367;SDS011;36281;34.132;-118.018;2022-07-23T11:58:06;18.63;;;12.02;;
50367;SDS011;36281;34.132;-118.018;2022-07-23T12:00:36;22.58;;;11.73;;
50367;SDS011;36281;34.132;-118.018;2022-07-23T12:03:09;20.15;;;11.05;;
50367;SDS011;36281;34.132;-118.018;2022-07-23T12:05:38;21.50;;;12.10;;
50367;SDS011;36281;34.132;-118.018;2022-07-23T12:08:08;20.38;;;12.07;;
50367;SDS011;36281;34.132;-118.018;2022-07-23T12:10:38;20.13;;;11.35;;
50367;SDS011;36281;34.132;-118.018;2022-07-23T12:13:11;15.88;;;11.55;;
50367;SDS011;36281;34.132;-118.018;2022-07-23T12:15:42;22.00;;;11.52;;
50367;SDS011;36281;34.132;-118.018;2022-07-23T12:18:13;19.58;;;10.98;;
50367;SDS011;36281;34.132;-118.018;2022-07-23T12:20:44;20.58;;;11.82;;
50367;SDS011;36281;34.132;-118.018;2022-07-23T12:23:15;20.40;;;11.82;;
50367;SDS011;36281;34.132;-118.018;2022-07-23T12:25:47;16.73;;;10.90;;
50367;SDS011;36281;34.132;-118.018;2022-07-23T12:28:19;20.40;;;12.20;;
50367;SDS011;36281;34.132;-118.018;2022-07-23T12:30:50;17.55;;;11.65;;
50367;SDS011;36281;34.132;-118.018;2022-07-23T12:33:24;19.00;;;12.10;;
50367;SDS011;36281;34.132;-118.018;2022-07-23T12:35:54;24.65;;;12.30;;
50367;SDS011;36281;34.132;-118.018;2022-07-23T12:38:25;22.42;;;12.18;;
50367;SDS011;36281;34.132;-118.018;2022-07-23T12:40:55;22.45;;;12.50;;
50367;SDS011;36281;34.132;-118.018;2022-07-23T12:43:27;19.42;;;12.23;;
50367;SDS011;36281;34.132;-118.018;2022-07-23T12:46:02;18.75;;;12.07;;
50367;SDS011;36281;34.132;-118.018;2022-07-23T12:48:32;18.98;;;11.85;;
50367;SDS011;36281;34.132;-118.018;2022-07-23T12:51:06;20.40;;;12.35;;
50367;SDS011;36281;34.132;-118.018;2022-07-23T12:53:45;23.90;;;12.82;;
50367;SDS011;36281;34.132;-118.018;2022-07-23T12:56:18;20.33;;;14.45;;
50367;SDS011;36281;34.132;-118.018;2022-07-23T12:58:51;21.55;;;12.20;;
50367;SDS011;36281;34.132;-118.018;2022-07-23T13:01:24;18.42;;;12.18;;
50367;SDS011;36281;34.132;-118.018;2022-07-23T13:03:56;26.95;;;13.43;;
50367;SDS011;36281;34.132;-118.018;2022-07-23T13:06:28;18.33;;;12.52;;
50367;SDS011;36281;34.132;-118.018;2022-07-23T13:08:58;23.73;;;12.90;;
50367;SDS011;36281;34.132;-118.018;2022-07-23T13:11:29;19.67;;;12.27;;
50367;SDS011;36281;34.132;-118.018;2022-07-23T13:14:00;18.20;;;13.13;;
50367;SDS011;36281;34.132;-118.018;2022-07-23T13:16:37;23.45;;;14.20;;
50367;SDS011;36281;34.132;-118.018;2022-07-23T13:19:07;21.38;;;13.68;;
50367;SDS011;36281;34.132;-118.018;2022-07-23T13:21:38;20.02;;;14.60;;
50367;SDS011;36281;34.132;-118.018;2022-07-23T13:24:08;25.17;;;13.88;;
50367;SDS011;36281;34.132;-118.018;2022-07-23T13:26:39;19.15;;;13.63;;
50367;SDS011;36281;34.132;-118.018;2022-07-23T13:29:10;22.50;;;13.07;;
50367;SDS011;36281;34.132;-118.018;2022-07-23T13:31:39;20.67;;;13.10;;
50367;SDS011;36281;34.132;-118.018;2022-07-23T13:34:09;24.50;;;13.55;;
50367;SDS011;36281;34.132;-118.018;2022-07-23T13:36:38;18.00;;;12.20;;
50367;SDS011;36281;34.132;-118.018;2022-07-23T13:39:08;23.80;;;13.38;;
50367;SDS011;36281;34.132;-118.018;2022-07-23T13:41:37;24.52;;;14.23;;
50367;SDS011;36281;34.132;-118.018;2022-07-23T13:44:17;22.15;;;13.18;;
50367;SDS011;36281;34.132;-118.018;2022-07-23T13:46:48;20.15;;;11.98;;
50367;SDS011;36281;34.132;-118.018;2022-07-23T13:49:18;20.77;;;13.50;;
50367;SDS011;36281;34.132;-118.018;2022-07-23T13:51:48;18.55;;;12.02;;
50367;SDS011;36281;34.132;-118.018;2022-07-23T13:54:17;22.63;;;12.90;;
50367;SDS011;36281;34.132;-118.018;2022-07-23T13:56:46;18.35;;;12.32;;
50367;SDS011;36281;34.132;-118.018;2022-07-23T13:59:17;21.38;;;12.07;;
50367;SDS011;36281;34.132;-118.018;2022-07-23T14:01:47;22.48;;;13.40;;
50367;SDS011;36281;34.132;-118.018;2022-07-23T14:04:36;20.23;;;12.77;;
50367;SDS011;36281;34.132;-118.018;2022-07-23T14:07:05;23.52;;;13.38;;
50367;SDS011;36281;34.132;-118.018;2022-07-23T14:09:34;20.77;;;12.85;;
50367;SDS011;36281;34.132;-118.018;2022-07-23T14:12:03;20.30;;;12.60;;
50367;SDS011;36281;34.132;-118.018;2022-07-23T14:14:35;21.52;;;12.95;;
50367;SDS011;36281;34.132;-118.018;2022-07-23T14:17:04;18.83;;;11.85;;
50367;SDS011;36281;34.132;-118.018;2022-07-23T14:19:37;22.88;;;12.85;;
50367;SDS011;36281;34.132;-118.018;2022-07-23T14:22:06;20.60;;;11.88;;
50367;SDS011;36281;34.132;-118.018;2022-07-23T14:24:35;19.58;;;12.73;;
50367;SDS011;36281;34.132;-118.018;2022-07-23T14:27:04;20.77;;;13.25;;
50367;SDS011;36281;34.132;-118.018;2022-07-23T14:29:35;17.25;;;11.73;;